Time;durP1;ratioP1;P1;durP2;ratioP2;P2;SDS_P1;SDS_P2;PMS_P1;PMS_P2;Temp;Humidity;BMP_temperature;BMP_pressure;BME280_temperature;BME280_humidity;BME280_pressure;Samples;Min_cycle;Max_cycle;Signal;HPM_P1;HPM_P2
2022/03/27 00:01:54;;;;;;;0.80;0.70;;;;;;;;;;5054190;28;20642;-72
2022/03/27 00:04:21;;;;;;;1.60;1.50;;;;;;;;;;5050588;28;20542;-72
2022/03/27 00:06:47;;;;;;;0.70;0.60;;;;;;;;;;5053339;28;20210;-73
2022/03/27 00:09:15;;;;;;;0.70;0.60;;;;;;;;;;5036386;28;20184;-73
2022/03/27 00:11:42;;;;;;;0.80;0.70;;;;;;;;;;5052677;28;20752;-72
2022/03/27 00:14:10;;;;;;;1.40;1.33;;;;;;;;;;5062169;28;20200;-72
2022/03/27 00:16:37;;;;;;;0.80;0.70;;;;;;;;;;5073695;28;20268;-72
2022/03/27 00:19:04;;;;;;;0.70;0.70;;;;;;;;;;5074584;28;20263;-72
2022/03/27 00:21:30;;;;;;;1.20;1.10;;;;;;;;;;5072552;28;20220;-73
2022/03/27 00:23:57;;;;;;;0.70;0.70;;;;;;;;;;5067529;28;20553;-72
2022/03/27 00:26:24;;;;;;;1.17;1.08;;;;;;;;;;5071983;28;20184;-73
2022/03/27 00:28:51;;;;;;;0.70;0.60;;;;;;;;;;5071074;28;20193;-72
2022/03/27 00:31:19;;;;;;;0.80;0.80;;;;;;;;;;5059130;28;20229;-72
2022/03/27 00:33:46;;;;;;;0.90;0.90;;;;;;;;;;5073072;28;20204;-72
2022/03/27 00:36:14;;;;;;;0.70;0.65;;;;;;;;;;5053702;28;20673;-72
2022/03/27 00:38:42;;;;;;;0.80;0.73;;;;;;;;;;5052541;28;20522;-72
2022/03/27 00:41:09;;;;;;;0.80;0.70;;;;;;;;;;5052679;28;20192;-72
2022/03/27 00:43:36;;;;;;;0.70;0.70;;;;;;;;;;5052863;28;20182;-72
2022/03/27 00:46:03;;;;;;;0.70;0.70;;;;;;;;;;5056849;28;20197;-72
2022/03/27 00:48:31;;;;;;;0.77;0.70;;;;;;;;;;5071404;28;20195;-73
2022/03/27 00:50:58;;;;;;;0.70;0.70;;;;;;;;;;5072527;28;20277;-73
2022/03/27 00:53:24;;;;;;;0.75;0.70;;;;;;;;;;5053643;28;20550;-73
2022/03/27 00:55:51;;;;;;;0.70;0.68;;;;;;;;;;5054129;28;20189;-73
2022/03/27 00:58:18;;;;;;;0.70;0.60;;;;;;;;;;5052653;28;20201;-74
2022/03/27 01:00:49;;;;;;;0.70;0.70;;;;;;;;;;5053158;28;20197;-72
2022/03/27 01:03:20;;;;;;;0.77;0.70;;;;;;;;;;5069893;28;20185;-73
2022/03/27 01:05:49;;;;;;;0.80;0.70;;;;;;;;;;5068452;28;20760;-72
2022/03/27 01:08:16;;;;;;;0.80;0.80;;;;;;;;;;5068842;28;20192;-72
2022/03/27 01:10:43;;;;;;;0.70;0.65;;;;;;;;;;5071435;28;20191;-72
2022/03/27 01:13:11;;;;;;;0.80;0.80;;;;;;;;;;5053936;28;20247;-74
2022/03/27 01:15:39;;;;;;;0.70;0.70;;;;;;;;;;5054035;28;20209;-73
2022/03/27 01:18:06;;;;;;;0.70;0.60;;;;;;;;;;5052076;28;20216;-74
2022/03/27 01:20:35;;;;;;;0.80;0.70;;;;;;;;;;5064974;28;20288;-74
2022/03/27 01:23:06;;;;;;;0.80;0.70;;;;;;;;;;5050505;28;20662;-74
2022/03/27 01:25:33;;;;;;;0.80;0.75;;;;;;;;;;5067290;28;20272;-73
2022/03/27 01:27:59;;;;;;;0.80;0.80;;;;;;;;;;5057938;28;20239;-74
2022/03/27 01:30:27;;;;;;;0.70;0.70;;;;;;;;;;5070337;28;20196;-74
2022/03/27 01:32:54;;;;;;;0.70;0.70;;;;;;;;;;5052821;28;20222;-73
2022/03/27 01:35:22;;;;;;;0.80;0.70;;;;;;;;;;5054117;28;20196;-74
2022/03/27 01:37:50;;;;;;;0.80;0.80;;;;;;;;;;5044839;28;20300;-73
2022/03/27 01:40:17;;;;;;;0.80;0.80;;;;;;;;;;5062874;28;20212;-73
2022/03/27 01:42:44;;;;;;;0.70;0.70;;;;;;;;;;5059269;28;20205;-73
2022/03/27 01:45:11;;;;;;;0.70;0.70;;;;;;;;;;5060426;28;20549;-73
2022/03/27 01:47:37;;;;;;;0.70;0.63;;;;;;;;;;5052016;28;20638;-73
2022/03/27 01:50:05;;;;;;;0.70;0.70;;;;;;;;;;5053573;28;20272;-73
2022/03/27 01:52:32;;;;;;;0.90;0.90;;;;;;;;;;5053022;28;20240;-73
2022/03/27 01:55:00;;;;;;;0.80;0.80;;;;;;;;;;5064225;28;20243;-73
2022/03/27 01:57:27;;;;;;;0.80;0.80;;;;;;;;;;5071106;28;20191;-73
2022/03/27 01:59:54;;;;;;;0.70;0.60;;;;;;;;;;5070700;28;20720;-73
2022/03/27 02:02:25;;;;;;;1.80;1.70;;;;;;;;;;5064259;28;20655;-74
2022/03/27 02:04:52;;;;;;;0.70;0.63;;;;;;;;;;5072748;28;20239;-73
2022/03/27 02:07:19;;;;;;;0.70;0.60;;;;;;;;;;5065014;28;20260;-73
2022/03/27 02:09:45;;;;;;;0.70;0.70;;;;;;;;;;5060365;28;20251;-72
2022/03/27 02:12:14;;;;;;;0.80;0.80;;;;;;;;;;5062671;28;20583;-72
2022/03/27 02:14:40;;;;;;;0.70;0.70;;;;;;;;;;5070056;28;20201;-73
2022/03/27 02:17:08;;;;;;;0.80;0.70;;;;;;;;;;5051681;28;20264;-73
2022/03/27 02:19:36;;;;;;;0.75;0.70;;;;;;;;;;5068825;28;20610;-73
2022/03/27 02:22:05;;;;;;;0.73;0.70;;;;;;;;;;5062930;28;20306;-73
2022/03/27 02:24:31;;;;;;;0.70;0.70;;;;;;;;;;5071570;28;20196;-73
2022/03/27 02:26:58;;;;;;;0.80;0.75;;;;;;;;;;5071471;28;20250;-73
2022/03/27 02:29:26;;;;;;;0.70;0.70;;;;;;;;;;5058839;28;20276;-72
2022/03/27 02:31:54;;;;;;;0.80;0.80;;;;;;;;;;5056576;28;20662;-72
2022/03/27 02:34:21;;;;;;;0.70;0.60;;;;;;;;;;5062694;28;20197;-72
2022/03/27 02:36:48;;;;;;;0.80;0.80;;;;;;;;;;5070066;28;20754;-72
2022/03/27 02:39:14;;;;;;;0.80;0.70;;;;;;;;;;5058138;28;20272;-72
2022/03/27 02:41:45;;;;;;;0.80;0.73;;;;;;;;;;5060424;28;20200;-72
2022/03/27 02:44:12;;;;;;;0.80;0.80;;;;;;;;;;5060189;28;20193;-72
2022/03/27 02:46:41;;;;;;;0.70;0.68;;;;;;;;;;5070928;28;20203;-72
2022/03/27 02:49:09;;;;;;;0.80;0.80;;;;;;;;;;5061213;28;20197;-72
2022/03/27 02:51:36;;;;;;;0.70;0.60;;;;;;;;;;5050455;28;20216;-72
2022/03/27 02:54:04;;;;;;;0.77;0.75;;;;;;;;;;5075869;28;20292;-73
2022/03/27 02:56:32;;;;;;;0.70;0.70;;;;;;;;;;5074782;28;20189;-72
2022/03/27 02:58:58;;;;;;;0.75;0.70;;;;;;;;;;5073674;28;20189;-73
2022/03/27 03:01:25;;;;;;;0.80;0.73;;;;;;;;;;5068422;28;20214;-72
2022/03/27 03:03:55;;;;;;;0.73;0.70;;;;;;;;;;5058318;28;20201;-74
2022/03/27 03:06:24;;;;;;;0.70;0.70;;;;;;;;;;5073647;28;20758;-74
2022/03/27 03:08:51;;;;;;;0.70;0.70;;;;;;;;;;5070766;28;20614;-73
2022/03/27 03:11:20;;;;;;;0.90;0.90;;;;;;;;;;5056665;28;20205;-74
2022/03/27 03:13:47;;;;;;;0.70;0.70;;;;;;;;;;5056117;28;20288;-72
2022/03/27 03:16:16;;;;;;;0.80;0.80;;;;;;;;;;5059158;28;20246;-73
2022/03/27 03:18:44;;;;;;;0.70;0.70;;;;;;;;;;5071912;28;20268;-73
2022/03/27 03:21:12;;;;;;;0.73;0.70;;;;;;;;;;5054245;28;20215;-73
2022/03/27 03:23:39;;;;;;;0.70;0.70;;;;;;;;;;5062105;28;20213;-73
2022/03/27 03:26:06;;;;;;;0.70;0.70;;;;;;;;;;5055563;28;20688;-73
2022/03/27 03:28:34;;;;;;;0.70;0.60;;;;;;;;;;5072703;28;20279;-73
2022/03/27 03:31:02;;;;;;;0.70;0.70;;;;;;;;;;5056565;28;20186;-73
2022/03/27 03:33:29;;;;;;;1.10;1.00;;;;;;;;;;5064179;28;20643;-74
2022/03/27 03:35:55;;;;;;;0.90;0.90;;;;;;;;;;5061706;28;20222;-73
2022/03/27 03:38:23;;;;;;;1.23;1.13;;;;;;;;;;5057948;28;20283;-72
2022/03/27 03:40:50;;;;;;;0.80;0.70;;;;;;;;;;5065619;28;20227;-73
2022/03/27 03:43:19;;;;;;;0.70;0.70;;;;;;;;;;5055086;28;20635;-73
2022/03/27 03:45:48;;;;;;;0.70;0.65;;;;;;;;;;5053810;28;20289;-73
2022/03/27 03:48:14;;;;;;;0.70;0.70;;;;;;;;;;5071047;28;20217;-73
2022/03/27 03:50:41;;;;;;;0.70;0.70;;;;;;;;;;5069751;28;20197;-73
2022/03/27 03:53:08;;;;;;;0.80;0.80;;;;;;;;;;5062947;28;20650;-74
2022/03/27 03:55:36;;;;;;;0.70;0.65;;;;;;;;;;5073640;28;20189;-73
2022/03/27 03:58:02;;;;;;;0.77;0.77;;;;;;;;;;5066626;28;20549;-73
2022/03/27 04:00:30;;;;;;;0.70;0.70;;;;;;;;;;5054661;28;20228;-73
2022/03/27 04:02:57;;;;;;;0.85;0.85;;;;;;;;;;5061060;28;20690;-74
2022/03/27 04:05:24;;;;;;;0.73;0.70;;;;;;;;;;5057708;28;20210;-73
2022/03/27 04:07:50;;;;;;;0.70;0.70;;;;;;;;;;5071039;28;20240;-73
2022/03/27 04:10:17;;;;;;;0.70;0.70;;;;;;;;;;5056634;28;20283;-73
2022/03/27 04:12:46;;;;;;;0.70;0.60;;;;;;;;;;5056890;28;20201;-73
2022/03/27 04:15:13;;;;;;;0.70;0.70;;;;;;;;;;5059295;28;20208;-73
2022/03/27 04:17:43;;;;;;;1.00;1.00;;;;;;;;;;5054463;28;20190;-74
2022/03/27 04:20:10;;;;;;;0.70;0.65;;;;;;;;;;5063099;28;20234;-73
2022/03/27 04:22:37;;;;;;;0.70;0.70;;;;;;;;;;5073232;28;20205;-74
2022/03/27 04:25:05;;;;;;;0.70;0.68;;;;;;;;;;5064228;28;20291;-73
2022/03/27 04:27:31;;;;;;;0.70;0.60;;;;;;;;;;5074248;28;20254;-73
2022/03/27 04:30:00;;;;;;;0.70;0.65;;;;;;;;;;5059280;28;20524;-73
2022/03/27 04:32:26;;;;;;;0.80;0.80;;;;;;;;;;5067369;28;20242;-73
2022/03/27 04:34:53;;;;;;;0.70;0.70;;;;;;;;;;5060352;28;20231;-73
2022/03/27 04:37:19;;;;;;;0.70;0.70;;;;;;;;;;5054072;28;20245;-73
2022/03/27 04:39:48;;;;;;;0.70;0.60;;;;;;;;;;5053193;28;20202;-73
2022/03/27 04:42:15;;;;;;;0.70;0.70;;;;;;;;;;5053844;28;20243;-73
2022/03/27 04:44:46;;;;;;;0.80;0.75;;;;;;;;;;5064481;28;20200;-73
2022/03/27 04:47:14;;;;;;;1.73;1.35;;;;;;;;;;5061290;28;20209;-73
2022/03/27 04:49:40;;;;;;;0.70;0.70;;;;;;;;;;5065065;28;20736;-72
2022/03/27 04:52:07;;;;;;;0.70;0.60;;;;;;;;;;5072574;28;20282;-72
2022/03/27 04:54:34;;;;;;;0.70;0.70;;;;;;;;;;5057782;28;20307;-72
2022/03/27 04:57:04;;;;;;;0.70;0.60;;;;;;;;;;5053990;28;20307;-72
2022/03/27 04:59:30;;;;;;;0.70;0.70;;;;;;;;;;5053422;28;20205;-72
2022/03/27 05:01:58;;;;;;;0.70;0.63;;;;;;;;;;5059912;28;20744;-72
2022/03/27 05:04:26;;;;;;;1.27;1.17;;;;;;;;;;5063818;28;20189;-73
2022/03/27 05:06:52;;;;;;;0.70;0.60;;;;;;;;;;5065692;28;20212;-73
2022/03/27 05:09:19;;;;;;;0.70;0.70;;;;;;;;;;5072784;28;20199;-73
2022/03/27 05:11:50;;;;;;;0.70;0.70;;;;;;;;;;5056498;28;20189;-73
2022/03/27 05:14:16;;;;;;;0.73;0.65;;;;;;;;;;5055279;28;20185;-72
2022/03/27 05:16:44;;;;;;;0.70;0.68;;;;;;;;;;5062877;28;20189;-72
2022/03/27 05:19:11;;;;;;;0.70;0.70;;;;;;;;;;5061314;28;20185;-72
2022/03/27 05:21:39;;;;;;;0.70;0.68;;;;;;;;;;5057006;28;20217;-72
2022/03/27 05:24:08;;;;;;;0.70;0.70;;;;;;;;;;5068252;28;20197;-73
2022/03/27 05:26:35;;;;;;;0.70;0.70;;;;;;;;;;5051688;28;20206;-73
2022/03/27 05:29:05;;;;;;;0.70;0.70;;;;;;;;;;5070369;28;20228;-73
2022/03/27 05:31:32;;;;;;;0.70;0.60;;;;;;;;;;5056222;28;20292;-73
2022/03/27 05:33:58;;;;;;;0.70;0.70;;;;;;;;;;5058841;28;20193;-74
2022/03/27 05:36:26;;;;;;;0.70;0.70;;;;;;;;;;5060051;28;20742;-73
2022/03/27 05:38:56;;;;;;;0.70;0.68;;;;;;;;;;5052845;28;20247;-73
2022/03/27 05:41:23;;;;;;;0.70;0.70;;;;;;;;;;5058528;28;20209;-72
2022/03/27 05:43:50;;;;;;;0.70;0.60;;;;;;;;;;5061961;28;20216;-73
2022/03/27 05:46:17;;;;;;;0.73;0.70;;;;;;;;;;5060839;28;20243;-73
2022/03/27 05:48:44;;;;;;;0.70;0.70;;;;;;;;;;5053551;28;20565;-72
2022/03/27 05:51:11;;;;;;;0.70;0.70;;;;;;;;;;5056162;28;20251;-73
2022/03/27 05:53:38;;;;;;;1.33;1.23;;;;;;;;;;5073874;28;20175;-73
2022/03/27 05:56:06;;;;;;;2.85;1.30;;;;;;;;;;5066776;28;20197;-72
2022/03/27 05:58:35;;;;;;;0.70;0.70;;;;;;;;;;5058504;28;20831;-72
2022/03/27 06:01:01;;;;;;;0.70;0.68;;;;;;;;;;5068612;28;20209;-73
2022/03/27 06:03:29;;;;;;;0.93;0.93;;;;;;;;;;5074239;28;20228;-72
2022/03/27 06:05:56;;;;;;;0.75;0.75;;;;;;;;;;5058343;28;20218;-72
2022/03/27 06:08:23;;;;;;;0.77;0.77;;;;;;;;;;5051779;28;20176;-73
2022/03/27 06:10:49;;;;;;;0.70;0.65;;;;;;;;;;5054100;28;20255;-73
2022/03/27 06:13:19;;;;;;;0.70;0.70;;;;;;;;;;5073553;28;20192;-73
2022/03/27 06:15:46;;;;;;;0.70;0.60;;;;;;;;;;5070473;28;20224;-73
2022/03/27 06:18:13;;;;;;;0.70;0.60;;;;;;;;;;5064336;28;20200;-73
2022/03/27 06:20:40;;;;;;;0.70;0.60;;;;;;;;;;5056720;28;20182;-73
2022/03/27 06:23:07;;;;;;;0.70;0.70;;;;;;;;;;5065473;28;20734;-73
2022/03/27 06:25:34;;;;;;;1.23;0.80;;;;;;;;;;5064855;28;20197;-74
2022/03/27 06:28:02;;;;;;;0.70;0.60;;;;;;;;;;5058953;28;20268;-74
2022/03/27 06:30:34;;;;;;;0.70;0.60;;;;;;;;;;5070410;28;20626;-74
2022/03/27 06:33:02;;;;;;;0.70;0.60;;;;;;;;;;5062313;28;20173;-74
2022/03/27 06:35:30;;;;;;;0.70;0.60;;;;;;;;;;5071322;28;20227;-73
2022/03/27 06:37:57;;;;;;;0.70;0.70;;;;;;;;;;5059657;28;20241;-72
2022/03/27 06:40:23;;;;;;;0.70;0.68;;;;;;;;;;5056099;28;20217;-74
2022/03/27 06:42:50;;;;;;;0.90;0.90;;;;;;;;;;5057713;28;20244;-74
2022/03/27 06:45:24;;;;;;;0.70;0.60;;;;;;;;;;5056829;28;20185;-73
2022/03/27 06:47:52;;;;;;;0.70;0.60;;;;;;;;;;5073610;28;20184;-72
2022/03/27 06:50:21;;;;;;;0.70;0.60;;;;;;;;;;5072891;28;20617;-72
2022/03/27 06:52:49;;;;;;;0.70;0.60;;;;;;;;;;5060311;28;20506;-73
2022/03/27 06:55:16;;;;;;;0.70;0.60;;;;;;;;;;5062811;28;20435;-73
2022/03/27 06:57:43;;;;;;;0.70;0.70;;;;;;;;;;5075866;28;20431;-73
2022/03/27 07:03:09;;;;;;;0.70;0.60;;;;;;;;;;5061533;28;20462;-73
2022/03/27 07:05:39;;;;;;;0.70;0.60;;;;;;;;;;5058791;28;20531;-73
2022/03/27 07:08:06;;;;;;;0.70;0.60;;;;;;;;;;5073145;28;20461;-72
2022/03/27 07:10:33;;;;;;;0.70;0.60;;;;;;;;;;5057013;28;20497;-73
2022/03/27 07:13:00;;;;;;;0.70;0.60;;;;;;;;;;5073275;28;20442;-74
2022/03/27 07:15:26;;;;;;;0.70;0.60;;;;;;;;;;5074300;28;20435;-73
2022/03/27 07:17:53;;;;;;;0.70;0.70;;;;;;;;;;5056485;28;20478;-73
2022/03/27 07:20:24;;;;;;;3.70;0.90;;;;;;;;;;5054359;28;20837;-74
2022/03/27 07:22:51;;;;;;;0.70;0.67;;;;;;;;;;5059986;28;20467;-73
2022/03/27 07:25:18;;;;;;;0.70;0.60;;;;;;;;;;5065639;28;20932;-74
2022/03/27 07:27:48;;;;;;;0.70;0.60;;;;;;;;;;5068599;28;20518;-73
2022/03/27 07:30:14;;;;;;;0.80;0.70;;;;;;;;;;5060301;28;20966;-73
2022/03/27 07:32:41;;;;;;;0.80;0.70;;;;;;;;;;5060115;28;20856;-73
2022/03/27 07:35:09;;;;;;;0.70;0.60;;;;;;;;;;5068226;28;20957;-73
2022/03/27 07:37:38;;;;;;;0.80;0.80;;;;;;;;;;5068118;28;20895;-71
2022/03/27 07:40:08;;;;;;;1.10;1.00;;;;;;;;;;5072013;28;20446;-71
2022/03/27 07:42:35;;;;;;;1.73;0.90;;;;;;;;;;5072182;28;20438;-73
2022/03/27 07:45:03;;;;;;;0.70;0.60;;;;;;;;;;5053165;28;21014;-71
2022/03/27 07:47:32;;;;;;;0.80;0.73;;;;;;;;;;5068958;28;20841;-71
2022/03/27 07:49:59;;;;;;;0.80;0.70;;;;;;;;;;5066145;28;20520;-72
2022/03/27 07:52:26;;;;;;;1.10;0.80;;;;;;;;;;5060614;28;20478;-71
2022/03/27 07:54:55;;;;;;;1.37;0.73;;;;;;;;;;5062551;28;20428;-71
2022/03/27 07:57:22;;;;;;;0.70;0.60;;;;;;;;;;5074263;28;20502;-71
2022/03/27 07:59:49;;;;;;;0.70;0.60;;;;;;;;;;5063027;28;20522;-73
2022/03/27 08:02:16;;;;;;;1.07;0.97;;;;;;;;;;5072789;28;20454;-72
2022/03/27 08:04:43;;;;;;;0.70;0.70;;;;;;;;;;5060999;28;20456;-73
2022/03/27 08:07:10;;;;;;;0.70;0.70;;;;;;;;;;5065763;28;20467;-73
2022/03/27 08:09:37;;;;;;;0.97;0.87;;;;;;;;;;5071480;28;20479;-72
2022/03/27 08:12:09;;;;;;;0.80;0.70;;;;;;;;;;5074467;28;20442;-71
2022/03/27 08:14:37;;;;;;;0.70;0.60;;;;;;;;;;5070608;28;20437;-72
2022/03/27 08:17:04;;;;;;;0.80;0.70;;;;;;;;;;5056983;28;20453;-72
2022/03/27 08:19:31;;;;;;;0.70;0.60;;;;;;;;;;5071268;28;20438;-73
2022/03/27 08:21:58;;;;;;;1.03;0.93;;;;;;;;;;5073088;28;20485;-73
2022/03/27 08:24:25;;;;;;;9.13;2.13;;;;;;;;;;5073644;28;20477;-71
2022/03/27 08:27:02;;;;;;;2.47;1.10;;;;;;;;;;5070262;28;20807;-73
2022/03/27 08:29:31;;;;;;;1.13;1.07;;;;;;;;;;5056038;28;20903;-72
2022/03/27 08:32:03;;;;;;;0.70;0.60;;;;;;;;;;5069724;28;20470;-73
2022/03/27 08:34:30;;;;;;;0.70;0.63;;;;;;;;;;5069042;28;21003;-71
2022/03/27 08:36:58;;;;;;;0.77;0.70;;;;;;;;;;5057590;28;20493;-71
2022/03/27 08:39:25;;;;;;;0.80;0.80;;;;;;;;;;5052381;28;20962;-74
2022/03/27 08:41:54;;;;;;;1.07;0.90;;;;;;;;;;5060541;28;20426;-74
2022/03/27 08:44:22;;;;;;;1.80;1.07;;;;;;;;;;5073955;28;20458;-73
2022/03/27 08:46:51;;;;;;;0.80;0.70;;;;;;;;;;5067291;28;20451;-73
2022/03/27 08:49:29;;;;;;;1.87;1.27;;;;;;;;;;5057773;28;20502;-73
2022/03/27 08:51:57;;;;;;;0.80;0.70;;;;;;;;;;5061123;28;20458;-74
2022/03/27 08:54:25;;;;;;;0.80;0.70;;;;;;;;;;5071582;28;20497;-73
2022/03/27 08:56:56;;;;;;;3.20;1.30;;;;;;;;;;5056911;28;21001;-73
2022/03/27 08:59:23;;;;;;;2.17;0.97;;;;;;;;;;5073081;28;20446;-73
2022/03/27 09:01:51;;;;;;;2.30;1.43;;;;;;;;;;5082244;28;20436;-73
2022/03/27 09:04:19;;;;;;;1.17;1.07;;;;;;;;;;5079728;28;20455;-73
2022/03/27 09:06:48;;;;;;;1.67;1.40;;;;;;;;;;5087181;28;20458;-73
2022/03/27 09:09:14;;;;;;;6.83;1.10;;;;;;;;;;5088376;28;20445;-73
2022/03/27 09:11:42;;;;;;;0.80;0.70;;;;;;;;;;5062332;28;20432;-73
2022/03/27 09:14:11;;;;;;;0.97;0.90;;;;;;;;;;5070297;28;20474;-73
2022/03/27 09:16:57;;;;;;;0.90;0.83;;;;;;;;;;5053777;28;20447;-72
2022/03/27 09:19:32;;;;;;;1.27;1.17;;;;;;;;;;5047008;28;20462;-72
2022/03/27 09:22:02;;;;;;;0.87;0.87;;;;;;;;;;5054280;28;20455;-73
2022/03/27 09:24:32;;;;;;;1.77;1.27;;;;;;;;;;5061228;28;20863;-73
2022/03/27 09:27:00;;;;;;;2.50;2.00;;;;;;;;;;5067486;28;21056;-74
2022/03/27 09:29:27;;;;;;;1.50;0.93;;;;;;;;;;5079524;28;20516;-73
2022/03/27 09:31:56;;;;;;;1.20;1.10;;;;;;;;;;5044514;28;20476;-73
2022/03/27 09:34:23;;;;;;;1.97;1.13;;;;;;;;;;5053203;28;20806;-72
2022/03/27 09:36:52;;;;;;;1.40;1.20;;;;;;;;;;5055632;28;20959;-73
2022/03/27 09:39:20;;;;;;;0.80;0.70;;;;;;;;;;5043060;28;20439;-73
2022/03/27 09:41:47;;;;;;;1.00;0.90;;;;;;;;;;5058339;28;20789;-73
2022/03/27 09:44:22;;;;;;;0.87;0.77;;;;;;;;;;5063439;28;20558;-73
2022/03/27 09:46:50;;;;;;;0.80;0.67;;;;;;;;;;5065321;28;20483;-74
2022/03/27 09:49:17;;;;;;;2.73;1.50;;;;;;;;;;5064351;28;20451;-73
2022/03/27 09:51:52;;;;;;;0.90;0.80;;;;;;;;;;5075029;28;20462;-73
2022/03/27 09:54:19;;;;;;;0.80;0.70;;;;;;;;;;5060411;28;20438;-72
2022/03/27 09:56:46;;;;;;;0.80;0.70;;;;;;;;;;5055426;28;20443;-73
2022/03/27 09:59:24;;;;;;;0.80;0.80;;;;;;;;;;5071201;28;20455;-73
2022/03/27 10:02:17;;;;;;;1.20;1.10;;;;;;;;;;5067810;28;20441;-73
2022/03/27 10:04:52;;;;;;;3.40;1.87;;;;;;;;;;5062942;28;20464;-73
2022/03/27 10:07:22;;;;;;;0.73;0.63;;;;;;;;;;5057354;28;20469;-73
2022/03/27 10:09:51;;;;;;;1.03;0.83;;;;;;;;;;5059627;28;20546;-73
2022/03/27 10:12:18;;;;;;;0.93;0.80;;;;;;;;;;5064141;28;20462;-73
2022/03/27 10:14:47;;;;;;;1.27;1.17;;;;;;;;;;5061411;28;20444;-72
2022/03/27 10:17:14;;;;;;;1.30;1.00;;;;;;;;;;5056897;28;20447;-73
2022/03/27 10:19:48;;;;;;;0.90;0.80;;;;;;;;;;5056111;28;20486;-72
2022/03/27 10:22:20;;;;;;;0.70;0.70;;;;;;;;;;5068896;28;20467;-73
2022/03/27 10:24:51;;;;;;;0.80;0.70;;;;;;;;;;5073083;28;20473;-73
2022/03/27 10:27:24;;;;;;;0.80;0.70;;;;;;;;;;5068092;28;20455;-73
2022/03/27 10:29:50;;;;;;;0.70;0.60;;;;;;;;;;5065864;28;20474;-74
2022/03/27 10:32:18;;;;;;;1.07;0.90;;;;;;;;;;5056671;28;20553;-73
2022/03/27 10:34:50;;;;;;;0.70;0.57;;;;;;;;;;5062525;28;20542;-73
2022/03/27 10:37:24;;;;;;;1.30;1.13;;;;;;;;;;5059031;28;20447;-73
2022/03/27 10:39:55;;;;;;;1.00;0.90;;;;;;;;;;5056216;28;20446;-73
2022/03/27 10:42:32;;;;;;;1.30;1.13;;;;;;;;;;5056761;28;20423;-72
2022/03/27 10:45:02;;;;;;;1.67;1.57;;;;;;;;;;5056244;28;20555;-73
2022/03/27 10:47:30;;;;;;;0.70;0.60;;;;;;;;;;5067750;28;20933;-72
2022/03/27 10:50:20;;;;;;;1.80;1.27;;;;;;;;;;5072492;28;20528;-73
2022/03/27 10:53:07;;;;;;;1.03;0.93;;;;;;;;;;5070948;28;20535;-73
2022/03/27 10:55:36;;;;;;;1.13;0.80;;;;;;;;;;5068315;28;20774;-73
2022/03/27 10:58:19;;;;;;;3.07;2.43;;;;;;;;;;5072116;28;20443;-74
2022/03/27 11:00:46;;;;;;;1.20;0.90;;;;;;;;;;5058953;28;20435;-73
2022/03/27 11:03:38;;;;;;;1.37;0.93;;;;;;;;;;5055378;28;20444;-73
2022/03/27 11:06:18;;;;;;;2.90;1.13;;;;;;;;;;5053924;28;20483;-74
2022/03/27 11:08:45;;;;;;;0.80;0.70;;;;;;;;;;5055028;28;20478;-73
2022/03/27 11:11:33;;;;;;;0.83;0.83;;;;;;;;;;5057714;28;20436;-72
2022/03/27 11:14:00;;;;;;;0.70;0.60;;;;;;;;;;5066777;28;21022;-73
2022/03/27 11:16:27;;;;;;;0.80;0.60;;;;;;;;;;5060576;28;20451;-73
2022/03/27 11:18:54;;;;;;;1.03;0.93;;;;;;;;;;5068606;28;20849;-72
2022/03/27 11:21:35;;;;;;;3.37;1.57;;;;;;;;;;5070675;28;20463;-73
2022/03/27 11:24:17;;;;;;;2.97;1.30;;;;;;;;;;5058823;28;20957;-73
2022/03/27 11:26:45;;;;;;;0.90;0.80;;;;;;;;;;5052518;28;20444;-73
2022/03/27 11:29:19;;;;;;;1.00;0.90;;;;;;;;;;5067199;28;20448;-73
2022/03/27 11:32:03;;;;;;;0.80;0.80;;;;;;;;;;5063972;28;20920;-72
2022/03/27 11:34:33;;;;;;;1.23;0.80;;;;;;;;;;5054701;28;20439;-73
2022/03/27 11:37:22;;;;;;;0.90;0.90;;;;;;;;;;5055340;28;20440;-73
2022/03/27 11:39:50;;;;;;;1.57;1.47;;;;;;;;;;5042473;28;20458;-74
2022/03/27 11:42:25;;;;;;;1.30;1.20;;;;;;;;;;5063080;28;20869;-73
2022/03/27 11:45:24;;;;;;;2.23;1.77;;;;;;;;;;5059779;28;20446;-73
2022/03/27 11:47:52;;;;;;;1.50;1.10;;;;;;;;;;5053737;28;20493;-72
2022/03/27 11:50:28;;;;;;;1.33;1.00;;;;;;;;;;5053868;28;20531;-71
2022/03/27 11:52:55;;;;;;;0.80;0.70;;;;;;;;;;5053933;28;20477;-74
2022/03/27 11:55:22;;;;;;;0.80;0.80;;;;;;;;;;5053719;28;20954;-75
2022/03/27 11:57:52;;;;;;;1.10;1.00;;;;;;;;;;5057933;28;20513;-74
2022/03/27 12:00:28;;;;;;;0.70;0.60;;;;;;;;;;5054296;28;20436;-75
2022/03/27 12:02:56;;;;;;;1.77;0.90;;;;;;;;;;5064387;28;20438;-75
2022/03/27 12:05:31;;;;;;;1.00;0.80;;;;;;;;;;5068462;28;20534;-75
2022/03/27 12:07:58;;;;;;;1.30;1.10;;;;;;;;;;5054538;28;20447;-75
2022/03/27 12:10:26;;;;;;;1.37;1.27;;;;;;;;;;5065515;28;20447;-75
2022/03/27 12:12:57;;;;;;;0.80;0.80;;;;;;;;;;5068342;28;20439;-74
2022/03/27 12:15:51;;;;;;;0.90;0.73;;;;;;;;;;5054837;28;20990;-72
2022/03/27 12:18:26;;;;;;;0.80;0.77;;;;;;;;;;5063550;28;20481;-75
2022/03/27 12:20:54;;;;;;;0.80;0.80;;;;;;;;;;5051446;28;20473;-74
2022/03/27 12:23:22;;;;;;;0.70;0.60;;;;;;;;;;5066138;28;20856;-74
2022/03/27 12:26:00;;;;;;;1.73;1.20;;;;;;;;;;5052413;28;20532;-75
2022/03/27 12:31:21;;;;;;;1.00;0.90;;;;;;;;;;5057858;28;20482;-74
2022/03/27 12:33:48;;;;;;;0.80;0.70;;;;;;;;;;5063490;28;20448;-74
2022/03/27 12:36:23;;;;;;;0.80;0.77;;;;;;;;;;5068411;28;20459;-75
2022/03/27 12:38:49;;;;;;;0.70;0.67;;;;;;;;;;5053946;28;20483;-74
2022/03/27 12:41:31;;;;;;;1.17;1.07;;;;;;;;;;5065938;28;20451;-74
2022/03/27 12:43:59;;;;;;;3.13;1.23;;;;;;;;;;5071354;28;20955;-74
2022/03/27 12:46:26;;;;;;;0.80;0.80;;;;;;;;;;5068068;28;20475;-74
2022/03/27 12:48:57;;;;;;;0.80;0.70;;;;;;;;;;5075539;28;20417;-75
2022/03/27 12:51:26;;;;;;;0.70;0.60;;;;;;;;;;5072913;28;20924;-76
2022/03/27 12:54:01;;;;;;;0.70;0.60;;;;;;;;;;5057721;28;20443;-75
2022/03/27 12:56:28;;;;;;;0.80;0.77;;;;;;;;;;5060807;28;20467;-77
2022/03/27 12:58:55;;;;;;;1.33;0.90;;;;;;;;;;5065505;28;20439;-78
2022/03/27 13:01:24;;;;;;;0.80;0.80;;;;;;;;;;5057562;28;20626;-77
2022/03/27 13:04:00;;;;;;;1.07;0.93;;;;;;;;;;5044718;28;20867;-78
2022/03/27 13:06:35;;;;;;;0.80;0.60;;;;;;;;;;5052713;28;20498;-78
2022/03/27 13:09:03;;;;;;;0.93;0.83;;;;;;;;;;5066674;28;20846;-77
2022/03/27 13:11:30;;;;;;;0.80;0.70;;;;;;;;;;5056223;28;20459;-78
2022/03/27 13:13:58;;;;;;;1.37;0.97;;;;;;;;;;5055918;28;20494;-75
2022/03/27 13:16:29;;;;;;;0.80;0.70;;;;;;;;;;5059389;28;20504;-75
2022/03/27 13:19:02;;;;;;;0.70;0.70;;;;;;;;;;5070817;28;20450;-75
2022/03/27 13:21:30;;;;;;;4.40;0.90;;;;;;;;;;5075362;28;20946;-75
2022/03/27 13:23:57;;;;;;;2.20;1.43;;;;;;;;;;5068196;28;20995;-75
2022/03/27 13:26:24;;;;;;;1.20;1.10;;;;;;;;;;5069460;28;20445;-75
2022/03/27 13:28:52;;;;;;;0.77;0.67;;;;;;;;;;5073347;28;20493;-75
2022/03/27 13:31:21;;;;;;;0.80;0.80;;;;;;;;;;5052591;28;20951;-76
2022/03/27 13:33:50;;;;;;;0.80;0.70;;;;;;;;;;5046246;28;20458;-75
2022/03/27 13:36:18;;;;;;;0.80;0.80;;;;;;;;;;5076069;28;20858;-74
2022/03/27 13:38:44;;;;;;;0.70;0.70;;;;;;;;;;5049002;28;20975;-75
2022/03/27 13:43:57;;;;;;;0.80;0.70;;;;;;;;;;5063509;28;20451;-75
2022/03/27 13:46:24;;;;;;;0.73;0.63;;;;;;;;;;5059025;28;20432;-74
2022/03/27 13:48:52;;;;;;;0.80;0.70;;;;;;;;;;5044207;28;20454;-76
2022/03/27 13:51:22;;;;;;;0.70;0.60;;;;;;;;;;5053174;28;20823;-76
2022/03/27 13:53:49;;;;;;;1.23;1.13;;;;;;;;;;5072073;28;20873;-75
2022/03/27 13:56:16;;;;;;;1.10;1.00;;;;;;;;;;5076292;28;20993;-75
2022/03/27 13:58:42;;;;;;;0.77;0.70;;;;;;;;;;5039682;28;20515;-76
2022/03/27 14:01:09;;;;;;;0.80;0.70;;;;;;;;;;5054020;28;20414;-74
2022/03/27 14:03:37;;;;;;;0.80;0.70;;;;;;;;;;5070968;28;20504;-75
2022/03/27 14:06:05;;;;;;;0.80;0.60;;;;;;;;;;5071837;28;20482;-75
2022/03/27 14:08:32;;;;;;;0.80;0.70;;;;;;;;;;5062119;28;20447;-75
2022/03/27 14:10:58;;;;;;;0.90;0.90;;;;;;;;;;5054138;28;20471;-75
2022/03/27 14:13:25;;;;;;;1.47;1.40;;;;;;;;;;5070015;28;20496;-74
2022/03/27 14:15:52;;;;;;;0.70;0.70;;;;;;;;;;5073461;28;20435;-76
2022/03/27 14:18:19;;;;;;;1.13;0.83;;;;;;;;;;5070681;28;20451;-73
2022/03/27 14:20:47;;;;;;;0.77;0.60;;;;;;;;;;5072818;28;20476;-73
2022/03/27 14:23:16;;;;;;;0.80;0.77;;;;;;;;;;5071670;28;20451;-75
2022/03/27 14:25:43;;;;;;;0.80;0.70;;;;;;;;;;5078967;28;20456;-75
2022/03/27 14:28:10;;;;;;;1.27;1.17;;;;;;;;;;5076186;28;20968;-75
2022/03/27 14:30:37;;;;;;;0.70;0.60;;;;;;;;;;5067909;28;20539;-77
2022/03/27 14:33:04;;;;;;;0.97;0.90;;;;;;;;;;5059856;28;20479;-75
2022/03/27 14:35:31;;;;;;;0.97;0.87;;;;;;;;;;5071252;28;20414;-74
2022/03/27 14:37:58;;;;;;;0.80;0.70;;;;;;;;;;5057115;28;20487;-74
2022/03/27 14:40:27;;;;;;;1.20;1.10;;;;;;;;;;5064901;28;20423;-75
2022/03/27 14:42:54;;;;;;;1.00;0.90;;;;;;;;;;5074242;28;20465;-75
2022/03/27 14:45:21;;;;;;;1.40;1.30;;;;;;;;;;5062573;28;20534;-76
2022/03/27 14:47:49;;;;;;;0.80;0.80;;;;;;;;;;5071069;28;20442;-74
2022/03/27 14:50:16;;;;;;;0.97;0.80;;;;;;;;;;5059484;28;20444;-74
2022/03/27 14:52:43;;;;;;;0.73;0.60;;;;;;;;;;5058776;28;21104;-75
2022/03/27 14:57:59;;;;;;;0.70;0.70;;;;;;;;;;5064439;28;20423;-76
2022/03/27 15:00:26;;;;;;;0.80;0.73;;;;;;;;;;5059464;28;20531;-76
2022/03/27 15:02:53;;;;;;;1.20;0.87;;;;;;;;;;5068568;28;20467;-75
2022/03/27 15:05:20;;;;;;;1.37;0.97;;;;;;;;;;5056239;28;20434;-75